createdAt,value
2022-11-23T00:00:19.315Z,98124.44
2022-11-23T00:00:50.695Z,98125.28
2022-11-23T00:01:25.878Z,98127.75
2022-11-23T00:01:57.368Z,98124.44
2022-11-23T00:02:28.825Z,98140.41
2022-11-23T00:03:00.268Z,98127.41
2022-11-23T00:03:31.615Z,98136.66
2022-11-23T00:04:06.845Z,98135.69
2022-11-23T00:04:38.170Z,98146.66
2022-11-23T00:05:09.491Z,98134.38
2022-11-23T00:05:40.925Z,98139.69
2022-11-23T00:06:12.346Z,98138.69
2022-11-23T00:06:43.673Z,98136.03
2022-11-23T00:07:15.135Z,98135.22
2022-11-23T00:07:46.675Z,98137.03
2022-11-23T00:08:18.090Z,98126.69
2022-11-23T00:08:49.517Z,98137.88
2022-11-23T00:09:20.984Z,98129.88
2022-11-23T00:09:52.438Z,98139.03
2022-11-23T00:10:23.849Z,98134.38
2022-11-23T00:10:58.092Z,98127.41
2022-11-23T00:11:29.658Z,98131.69
2022-11-23T00:12:01.053Z,98128.41
2022-11-23T00:12:32.522Z,98129.44
2022-11-23T00:13:03.928Z,98138.41
2022-11-23T00:13:35.306Z,98142.91
2022-11-23T00:14:06.713Z,98145.19
2022-11-23T00:14:38.113Z,98141.69
2022-11-23T00:15:09.683Z,98134.75
2022-11-23T00:15:41.069Z,98145.00
2022-11-23T00:16:16.134Z,98148.69
2022-11-23T00:16:47.515Z,98140.72
2022-11-23T00:17:18.919Z,98139.03
2022-11-23T00:17:50.300Z,98141.88
2022-11-23T00:18:21.726Z,98137.41
2022-11-23T00:18:55.558Z,98135.56
2022-11-23T00:19:27.042Z,98144.53
2022-11-23T00:19:58.506Z,98140.25
2022-11-23T00:20:29.985Z,98143.72
2022-11-23T00:21:05.746Z,98145.38
2022-11-23T00:21:37.198Z,98142.72
2022-11-23T00:22:08.615Z,98140.88
2022-11-23T00:22:39.987Z,98146.19
2022-11-23T00:23:11.450Z,98149.84
2022-11-23T00:23:42.890Z,98156.19
2022-11-23T00:24:14.295Z,98149.03
2022-11-23T00:24:45.753Z,98146.38
2022-11-23T00:25:17.266Z,98148.03
2022-11-23T00:25:48.739Z,98154.00
2022-11-23T00:26:20.176Z,98156.03
2022-11-23T00:26:51.611Z,98148.22
2022-11-23T00:27:23.108Z,98150.69
2022-11-23T00:27:54.519Z,98151.69
2022-11-23T00:28:25.939Z,98147.38
2022-11-23T00:28:57.326Z,98153.53
2022-11-23T00:29:28.945Z,98151.69
2022-11-23T00:30:00.577Z,98152.69
2022-11-23T00:30:31.999Z,98151.06
2022-11-23T00:31:03.540Z,98152.50
2022-11-23T00:31:34.915Z,98152.69
2022-11-23T00:32:06.288Z,98149.84
2022-11-23T00:32:37.684Z,98157.66
2022-11-23T00:33:09.061Z,98152.34
2022-11-23T00:33:40.468Z,98151.53
2022-11-23T00:34:11.921Z,98143.19
2022-11-23T00:34:43.382Z,98151.34
2022-11-23T00:35:14.943Z,98152.97
2022-11-23T00:35:46.338Z,98148.69
2022-11-23T00:36:17.893Z,98160.31
2022-11-23T00:36:50.627Z,98156.03
2022-11-23T00:37:22.068Z,98149.84
2022-11-23T00:37:53.519Z,98151.53
2022-11-23T00:38:24.913Z,98153.38
2022-11-23T00:38:56.349Z,98156.03
2022-11-23T00:39:27.740Z,98157.66
2022-11-23T00:39:59.156Z,98149.03
2022-11-23T00:40:30.658Z,98159.50
2022-11-23T00:41:02.749Z,98155.19
2022-11-23T00:41:34.235Z,98150.50
2022-11-23T00:42:05.642Z,98152.34
2022-11-23T00:42:38.327Z,98162.97
2022-11-23T00:43:09.898Z,98159.50
2022-11-23T00:43:41.355Z,98159.50
2022-11-23T00:44:12.894Z,98160.66
2022-11-23T00:44:44.406Z,98162.50
2022-11-23T00:45:15.865Z,98161.53
2022-11-23T00:45:47.333Z,98159.84
2022-11-23T00:46:18.731Z,98158.84
2022-11-23T00:46:50.189Z,98164.00
2022-11-23T00:47:21.600Z,98158.47
2022-11-23T00:47:53.017Z,98164.00
2022-11-23T00:48:24.590Z,98160.50
2022-11-23T00:48:56.276Z,98159.69
2022-11-23T00:49:27.694Z,98153.53
2022-11-23T00:49:59.122Z,98165.81
2022-11-23T00:50:30.498Z,98162.34
2022-11-23T00:51:04.373Z,98157.84
2022-11-23T00:51:36.372Z,98157.19
2022-11-23T00:52:07.805Z,98152.88
2022-11-23T00:52:39.232Z,98162.34
2022-11-23T00:53:10.631Z,98159.03
2022-11-23T00:53:42.138Z,98158.00
2022-11-23T00:54:13.552Z,98158.00
2022-11-23T00:54:45.010Z,98156.38
2022-11-23T00:55:16.371Z,98151.88
2022-11-23T00:55:51.432Z,98158.00
2022-11-23T00:56:22.930Z,98156.03
2022-11-23T00:56:54.348Z,98152.50
2022-11-23T00:57:25.770Z,98160.50
2022-11-23T00:57:57.958Z,98158.69
2022-11-23T00:58:29.453Z,98151.34
2022-11-23T00:59:01.051Z,98153.16
2022-11-23T00:59:32.593Z,98161.13
2022-11-23T01:00:04.967Z,98157.66
2022-11-23T01:00:36.408Z,98156.03
2022-11-23T01:01:11.329Z,98163.16
2022-11-23T01:01:42.870Z,98159.31
2022-11-23T01:02:14.354Z,98156.66
2022-11-23T01:02:45.811Z,98162.97
2022-11-23T01:03:17.365Z,98168.31
2022-11-23T01:03:49.672Z,98156.84
2022-11-23T01:04:21.067Z,98163.16
2022-11-23T01:04:52.440Z,98164.81
2022-11-23T01:05:23.839Z,98165.81
2022-11-23T01:05:55.240Z,98157.66
2022-11-23T01:06:33.226Z,98161.34
2022-11-23T01:07:04.695Z,98158.00
2022-11-23T01:07:36.212Z,98162.50
2022-11-23T01:08:07.754Z,98157.03
2022-11-23T01:08:39.197Z,98162.50
2022-11-23T01:09:14.528Z,98156.03
2022-11-23T01:09:45.959Z,98165.63
2022-11-23T01:10:17.347Z,98168.31
2022-11-23T01:10:48.755Z,98171.78
2022-11-23T01:11:20.449Z,98169.97
2022-11-23T01:11:52.302Z,98172.63
2022-11-23T01:12:23.734Z,98175.28
2022-11-23T01:12:55.139Z,98167.66
2022-11-23T01:13:26.614Z,98164.81
2022-11-23T01:13:58.217Z,98165.81
2022-11-23T01:14:29.639Z,98178.13
2022-11-23T01:15:01.114Z,98161.34
2022-11-23T01:15:32.600Z,98164.00
2022-11-23T01:16:04.110Z,98170.31
2022-11-23T01:16:36.555Z,98169.50
2022-11-23T01:17:08.010Z,98166.00
2022-11-23T01:17:39.454Z,98163.16
2022-11-23T01:18:10.974Z,98159.69
2022-11-23T01:18:42.447Z,98166.66
2022-11-23T01:19:14.604Z,98165.81
2022-11-23T01:19:46.123Z,98168.47
2022-11-23T01:20:17.603Z,98159.84
2022-11-23T01:20:49.118Z,98159.69
2022-11-23T01:21:20.482Z,98160.66
2022-11-23T01:21:51.909Z,98164.34
2022-11-23T01:22:23.558Z,98161.69
2022-11-23T01:22:54.947Z,98159.03
2022-11-23T01:23:28.207Z,98163.34
2022-11-23T01:23:59.692Z,98167.66
2022-11-23T01:24:31.247Z,98170.31
2022-11-23T01:25:02.727Z,98162.34
2022-11-23T01:25:35.784Z,98166.66
2022-11-23T01:26:07.768Z,98167.66
2022-11-23T01:26:39.682Z,98166.66
2022-11-23T01:27:11.074Z,98177.31
2022-11-23T01:27:42.489Z,98170.31
2022-11-23T01:28:13.959Z,98172.00
2022-11-23T01:28:45.312Z,98183.63
2022-11-23T01:29:16.830Z,98175.47
2022-11-23T01:29:48.271Z,98168.31
2022-11-23T01:30:19.884Z,98180.97
2022-11-23T01:30:51.348Z,98174.66
2022-11-23T01:31:23.182Z,98170.31
2022-11-23T01:31:54.608Z,98172.81
2022-11-23T01:32:26.032Z,98167.47
2022-11-23T01:32:57.449Z,98173.78
2022-11-23T01:33:28.853Z,98170.31
2022-11-23T01:34:00.811Z,98183.78
2022-11-23T01:34:32.358Z,98183.16
2022-11-23T01:35:03.850Z,98183.97
2022-11-23T01:35:35.226Z,98198.09
2022-11-23T01:36:12.092Z,98189.94
2022-11-23T01:36:43.709Z,98181.78
2022-11-23T01:37:15.104Z,98188.13
2022-11-23T01:37:46.558Z,98183.63
2022-11-23T01:38:18.571Z,98191.59
2022-11-23T01:38:50.150Z,98192.59
2022-11-23T01:39:21.590Z,98198.59
2022-11-23T01:39:53.138Z,98178.47
2022-11-23T01:40:24.553Z,98185.63
2022-11-23T01:40:55.974Z,98200.56
2022-11-23T01:41:28.322Z,98190.97
2022-11-23T01:41:59.727Z,98194.44
2022-11-23T01:43:09.721Z,98190.97
2022-11-23T01:43:41.168Z,98187.44
2022-11-23T01:44:21.250Z,98193.63
2022-11-23T01:44:52.667Z,98192.75
2022-11-23T01:45:42.434Z,98190.28
2022-11-23T01:46:13.894Z,98191.13
2022-11-23T01:46:45.326Z,98190.97
2022-11-23T01:47:16.788Z,98194.59
2022-11-23T01:47:48.240Z,98189.28
2022-11-23T01:48:24.038Z,98189.28
2022-11-23T01:49:01.971Z,98196.44
2022-11-23T01:49:34.712Z,98193.63
2022-11-23T01:50:06.459Z,98194.44
2022-11-23T01:50:37.859Z,98189.28
2022-11-23T01:51:11.043Z,98196.44
2022-11-23T01:51:43.856Z,98192.94
2022-11-23T01:52:16.423Z,98190.28
2022-11-23T01:52:47.857Z,98190.28
2022-11-23T01:53:19.408Z,98196.28
2022-11-23T01:53:51.778Z,98189.28
2022-11-23T01:54:31.174Z,98193.78
2022-11-23T01:55:08.171Z,98193.63
2022-11-23T01:55:39.910Z,98201.78
2022-11-23T01:56:13.001Z,98189.47
2022-11-23T01:56:46.196Z,98190.09
2022-11-23T01:57:33.298Z,98195.25
2022-11-23T01:58:04.703Z,98189.94
2022-11-23T01:58:37.433Z,98190.09
2022-11-23T01:59:09.888Z,98191.78
2022-11-23T01:59:41.272Z,98189.94
2022-11-23T02:00:12.921Z,98181.13
2022-11-23T02:00:44.357Z,98189.13
2022-11-23T02:01:15.862Z,98189.94
2022-11-23T02:01:47.365Z,98190.78
2022-11-23T02:02:18.757Z,98196.09
2022-11-23T02:02:59.435Z,98188.28
2022-11-23T02:03:30.839Z,98196.09
2022-11-23T02:04:02.331Z,98192.59
2022-11-23T02:04:35.142Z,98194.44
2022-11-23T02:05:06.692Z,98201.41
2022-11-23T02:05:39.267Z,98197.75
2022-11-23T02:06:14.566Z,98190.59
2022-11-23T02:06:46.286Z,98190.78
2022-11-23T02:07:17.745Z,98190.97
2022-11-23T02:07:49.223Z,98191.59
2022-11-23T02:08:20.758Z,98180.78
2022-11-23T02:08:52.129Z,98179.28
2022-11-23T02:09:23.582Z,98189.94
2022-11-23T02:09:55.041Z,98180.13
2022-11-23T02:10:26.395Z,98194.25
2022-11-23T02:10:57.935Z,98181.94
2022-11-23T02:11:29.367Z,98180.97
2022-11-23T02:12:00.849Z,98191.59
2022-11-23T02:12:32.247Z,98192.41
2022-11-23T02:13:04.902Z,98187.28
2022-11-23T02:13:36.274Z,98185.47
2022-11-23T02:14:07.668Z,98196.91
2022-11-23T02:14:39.142Z,98188.94
2022-11-23T02:15:10.631Z,98189.94
2022-11-23T02:15:42.031Z,98196.91
2022-11-23T02:16:13.667Z,98188.94
2022-11-23T02:16:45.156Z,98190.59
2022-11-23T02:17:16.584Z,98191.59
2022-11-23T02:17:48.006Z,98191.59
2022-11-23T02:18:20.143Z,98193.25
2022-11-23T02:18:51.528Z,98187.75
2022-11-23T02:19:31.117Z,98197.75
2022-11-23T02:20:09.597Z,98196.09
2022-11-23T02:20:43.662Z,98193.44
2022-11-23T02:21:15.193Z,98189.13
2022-11-23T02:21:46.599Z,98194.44
2022-11-23T02:22:29.661Z,98187.28
2022-11-23T02:23:03.962Z,98196.09
2022-11-23T02:23:54.172Z,98203.06
2022-11-23T02:24:26.948Z,98200.56
2022-11-23T02:24:58.423Z,98202.41
2022-11-23T02:25:32.497Z,98199.75
2022-11-23T02:26:08.030Z,98197.75
2022-11-23T02:26:39.442Z,98192.75
2022-11-23T02:27:10.858Z,98204.91
2022-11-23T02:27:46.745Z,98198.94
2022-11-23T02:28:19.144Z,98205.06
2022-11-23T02:28:53.203Z,98206.75
2022-11-23T02:29:24.951Z,98205.06
2022-11-23T02:29:56.378Z,98204.25
2022-11-23T02:30:28.788Z,98207.91
2022-11-23T02:31:00.174Z,98198.09
2022-11-23T02:31:31.765Z,98207.09
2022-11-23T02:32:03.204Z,98204.25
2022-11-23T02:32:34.636Z,98223.03
2022-11-23T02:33:06.069Z,98205.88
2022-11-23T02:33:40.340Z,98209.56
2022-11-23T02:34:11.750Z,98214.91
2022-11-23T02:34:43.178Z,98213.88
2022-11-23T02:35:14.628Z,98206.75
2022-11-23T02:35:49.826Z,98202.41
2022-11-23T02:36:41.474Z,98203.06
2022-11-23T02:37:13.006Z,98212.06
2022-11-23T02:37:44.438Z,98209.22
2022-11-23T02:38:15.878Z,98204.25
2022-11-23T02:38:47.273Z,98203.22
2022-11-23T02:39:21.006Z,98207.91
2022-11-23T02:39:52.351Z,98200.75
2022-11-23T02:40:33.836Z,98212.22
2022-11-23T02:41:05.331Z,98211.22
2022-11-23T02:41:44.072Z,98202.25
2022-11-23T02:42:15.475Z,98210.38
2022-11-23T02:42:46.960Z,98214.91
2022-11-23T02:43:18.422Z,98206.75
2022-11-23T02:43:49.740Z,98213.88
2022-11-23T02:44:21.122Z,98222.69
2022-11-23T02:45:00.490Z,98218.19
2022-11-23T02:45:34.567Z,98211.22
2022-11-23T02:46:06.108Z,98222.69
2022-11-23T02:46:37.609Z,98215.88
2022-11-23T02:47:09.191Z,98215.06
2022-11-23T02:47:40.721Z,98222.88
2022-11-23T02:48:12.217Z,98219.38
2022-11-23T02:48:43.656Z,98222.88
2022-11-23T02:49:15.081Z,98206.25
2022-11-23T02:49:46.728Z,98220.22
2022-11-23T02:50:18.180Z,98217.56
2022-11-23T02:50:49.636Z,98221.22
2022-11-23T02:51:21.158Z,98230.84
2022-11-23T02:51:52.595Z,98220.22
2022-11-23T02:52:24.067Z,98212.22
2022-11-23T02:52:55.539Z,98216.72
2022-11-23T02:53:26.995Z,98225.53
2022-11-23T02:53:58.429Z,98222.03
2022-11-23T02:54:29.931Z,98218.19
2022-11-23T02:55:01.446Z,98231.66
2022-11-23T02:55:32.823Z,98221.84
2022-11-23T02:56:04.345Z,98227.34
2022-11-23T02:56:35.912Z,98220.22
2022-11-23T02:57:07.382Z,98213.88
2022-11-23T02:57:38.792Z,98223.53
2022-11-23T02:58:10.206Z,98221.84
2022-11-23T02:58:41.676Z,98225.19
2022-11-23T02:59:13.079Z,98222.69
2022-11-23T02:59:44.560Z,98220.03
2022-11-23T03:00:16.405Z,98222.69
2022-11-23T03:00:47.904Z,98228.03
2022-11-23T03:01:19.431Z,98223.53
2022-11-23T03:01:50.958Z,98223.53
2022-11-23T03:02:22.340Z,98223.53
2022-11-23T03:02:53.834Z,98227.16
2022-11-23T03:03:25.256Z,98226.34
2022-11-23T03:03:56.644Z,98220.38
2022-11-23T03:04:28.329Z,98227.53
2022-11-23T03:04:59.783Z,98232.50
2022-11-23T03:05:31.310Z,98228.19
2022-11-23T03:06:02.785Z,98226.34
2022-11-23T03:06:34.243Z,98224.69
2022-11-23T03:07:05.799Z,98229.19
2022-11-23T03:07:37.294Z,98227.16
2022-11-23T03:08:08.769Z,98227.16
2022-11-23T03:08:40.188Z,98223.53
2022-11-23T03:09:11.566Z,98223.03
2022-11-23T03:09:42.997Z,98222.03
2022-11-23T03:10:14.428Z,98232.50
2022-11-23T03:10:45.874Z,98228.84
2022-11-23T03:11:17.273Z,98228.84
2022-11-23T03:11:48.701Z,98226.34
2022-11-23T03:12:20.220Z,98231.66
2022-11-23T03:12:53.651Z,98235.16
2022-11-23T03:13:25.100Z,98225.53
2022-11-23T03:13:56.506Z,98234.16
2022-11-23T03:14:27.925Z,98229.84
2022-11-23T03:14:59.305Z,98229.84
2022-11-23T03:15:30.705Z,98228.03
2022-11-23T03:16:02.187Z,98234.50
2022-11-23T03:16:33.651Z,98230.69
2022-11-23T03:17:05.023Z,98233.34
2022-11-23T03:17:36.624Z,98231.66
2022-11-23T03:18:08.125Z,98231.66
2022-11-23T03:18:39.555Z,98227.34
2022-11-23T03:19:10.994Z,98229.00
2022-11-23T03:19:42.443Z,98229.84
2022-11-23T03:20:13.815Z,98230.84
2022-11-23T03:20:45.192Z,98234.50
2022-11-23T03:21:16.644Z,98232.66
2022-11-23T03:21:48.074Z,98227.16
2022-11-23T03:22:19.607Z,98232.50
2022-11-23T03:22:51.099Z,98241.50
2022-11-23T03:23:22.524Z,98231.50
2022-11-23T03:23:54.898Z,98231.66
2022-11-23T03:24:26.330Z,98237.00
2022-11-23T03:24:57.767Z,98236.19
2022-11-23T03:25:29.167Z,98232.50
2022-11-23T03:26:00.571Z,98226.19
2022-11-23T03:26:31.990Z,98226.19
2022-11-23T03:27:03.447Z,98237.81
2022-11-23T03:27:34.855Z,98238.84
2022-11-23T03:28:06.315Z,98234.34
2022-11-23T03:28:37.754Z,98232.50
2022-11-23T03:29:09.170Z,98231.66
2022-11-23T03:29:40.570Z,98241.31
2022-11-23T03:30:12.111Z,98229.66
2022-11-23T03:30:43.526Z,98239.66
2022-11-23T03:31:14.894Z,98236.19
2022-11-23T03:31:46.320Z,98234.97
2022-11-23T03:32:17.718Z,98237.63
2022-11-23T03:32:49.188Z,98236.81
2022-11-23T03:33:20.656Z,98238.66
2022-11-23T03:33:52.089Z,98236.00
2022-11-23T03:34:23.505Z,98240.31
2022-11-23T03:34:54.919Z,98236.81
2022-11-23T03:35:26.324Z,98237.81
2022-11-23T03:35:57.720Z,98237.00
2022-11-23T03:36:29.111Z,98239.47
2022-11-23T03:37:00.574Z,98232.50
2022-11-23T03:37:32.016Z,98235.81
2022-11-23T03:38:03.424Z,98232.50
2022-11-23T03:38:34.929Z,98228.66
2022-11-23T03:39:06.443Z,98236.19
2022-11-23T03:39:39.138Z,98236.00
2022-11-23T03:40:13.129Z,98233.34
2022-11-23T03:40:44.972Z,98233.34
2022-11-23T03:41:16.388Z,98235.81
2022-11-23T03:41:47.766Z,98230.50
2022-11-23T03:42:19.168Z,98234.16
2022-11-23T03:42:50.574Z,98235.16
2022-11-23T03:43:22.055Z,98231.66
2022-11-23T03:43:53.520Z,98228.19
2022-11-23T03:44:24.935Z,98235.16
2022-11-23T03:44:56.328Z,98231.66
2022-11-23T03:45:27.687Z,98238.66
2022-11-23T03:45:59.151Z,98231.50
2022-11-23T03:46:30.601Z,98232.50
2022-11-23T03:47:01.964Z,98229.00
2022-11-23T03:47:33.395Z,98235.16
2022-11-23T03:48:04.943Z,98235.31
2022-11-23T03:48:36.437Z,98236.19
2022-11-23T03:49:07.920Z,98233.50
2022-11-23T03:49:39.343Z,98235.31
2022-11-23T03:50:10.797Z,98233.69
2022-11-23T03:50:42.234Z,98233.69
2022-11-23T03:51:13.673Z,98231.66
2022-11-23T03:51:45.130Z,98236.19
2022-11-23T03:52:16.555Z,98229.66
2022-11-23T03:52:50.980Z,98230.84
2022-11-23T03:53:22.419Z,98239.47
2022-11-23T03:53:53.890Z,98235.16
2022-11-23T03:54:25.412Z,98239.47
2022-11-23T03:54:56.841Z,98229.84
2022-11-23T03:55:28.294Z,98229.84
2022-11-23T03:55:59.775Z,98229.66
2022-11-23T03:56:31.280Z,98225.19
2022-11-23T03:57:02.678Z,98233.34
2022-11-23T03:57:34.100Z,98224.50
2022-11-23T03:58:05.587Z,98229.19
2022-11-23T03:58:36.949Z,98238.84
2022-11-23T03:59:08.470Z,98230.84
2022-11-23T03:59:39.900Z,98238.84
2022-11-23T04:00:11.688Z,98228.19
2022-11-23T04:00:43.165Z,98231.66
2022-11-23T04:01:14.703Z,98232.50
2022-11-23T04:01:46.132Z,98234.16
2022-11-23T04:02:17.521Z,98228.84
2022-11-23T04:02:48.959Z,98236.19
2022-11-23T04:03:20.378Z,98231.84
2022-11-23T04:03:51.976Z,98231.66
2022-11-23T04:04:23.392Z,98237.00
2022-11-23T04:04:54.811Z,98229.19
2022-11-23T04:05:26.178Z,98238.84
2022-11-23T04:05:57.575Z,98231.84
2022-11-23T04:06:28.968Z,98238.66
2022-11-23T04:07:00.357Z,98237.00
2022-11-23T04:07:31.809Z,98234.34
2022-11-23T04:08:03.233Z,98228.19
2022-11-23T04:08:34.594Z,98233.50
2022-11-23T04:09:06.028Z,98233.50
2022-11-23T04:09:37.491Z,98236.81
2022-11-23T04:10:09.066Z,98231.66
2022-11-23T04:10:40.509Z,98231.66
2022-11-23T04:11:11.929Z,98232.31
2022-11-23T04:11:43.348Z,98235.16
2022-11-23T04:12:14.761Z,98237.81
2022-11-23T04:12:46.174Z,98233.16
2022-11-23T04:13:17.544Z,98236.66
2022-11-23T04:13:48.918Z,98227.84
2022-11-23T04:14:20.308Z,98230.50
2022-11-23T04:14:51.902Z,98237.63
2022-11-23T04:15:23.359Z,98243.81
2022-11-23T04:15:54.709Z,98240.47
2022-11-23T04:16:26.119Z,98235.16
2022-11-23T04:16:57.522Z,98237.00
2022-11-23T04:17:28.946Z,98237.81
2022-11-23T04:18:00.374Z,98247.47
2022-11-23T04:18:31.813Z,98236.00
2022-11-23T04:19:03.235Z,98241.31
2022-11-23T04:19:34.956Z,98238.66
2022-11-23T04:20:07.005Z,98237.81
2022-11-23T04:20:38.561Z,98239.47
2022-11-23T04:21:09.997Z,98237.81
2022-11-23T04:21:41.458Z,98240.13
2022-11-23T04:22:12.866Z,98238.50
2022-11-23T04:22:44.300Z,98239.66
2022-11-23T04:23:15.729Z,98237.00
2022-11-23T04:23:47.132Z,98237.00
2022-11-23T04:24:18.533Z,98237.00
2022-11-23T04:24:49.899Z,98240.47
2022-11-23T04:25:21.337Z,98237.81
2022-11-23T04:25:52.812Z,98237.97
2022-11-23T04:26:24.224Z,98237.00
2022-11-23T04:26:55.673Z,98237.00
2022-11-23T04:27:27.093Z,98237.81
2022-11-23T04:27:58.530Z,98238.84
2022-11-23T04:28:29.948Z,98236.81
2022-11-23T04:29:01.356Z,98230.84
2022-11-23T04:29:32.815Z,98237.81
2022-11-23T04:30:04.784Z,98237.81
2022-11-23T04:30:36.261Z,98232.50
2022-11-23T04:31:07.815Z,98229.84
2022-11-23T04:31:39.229Z,98237.81
2022-11-23T04:32:10.707Z,98234.16
2022-11-23T04:32:44.393Z,98239.47
2022-11-23T04:33:15.872Z,98236.81
2022-11-23T04:33:47.242Z,98235.16
2022-11-23T04:34:18.831Z,98231.66
2022-11-23T04:34:50.381Z,98235.16
2022-11-23T04:35:21.896Z,98237.63
2022-11-23T04:35:53.290Z,98236.00
2022-11-23T04:36:24.683Z,98238.84
2022-11-23T04:36:56.162Z,98238.66
2022-11-23T04:37:27.625Z,98239.47
2022-11-23T04:37:59.046Z,98237.81
2022-11-23T04:38:30.445Z,98236.19
2022-11-23T04:39:01.870Z,98236.19
2022-11-23T04:39:33.612Z,98233.34
2022-11-23T04:40:05.579Z,98231.66
2022-11-23T04:40:37.032Z,98235.16
2022-11-23T04:41:08.462Z,98238.84
2022-11-23T04:41:39.925Z,98241.50
2022-11-23T04:42:11.717Z,98237.00
2022-11-23T04:42:43.157Z,98238.66
2022-11-23T04:43:14.764Z,98243.97
2022-11-23T04:43:47.540Z,98242.31
2022-11-23T04:44:19.035Z,98243.13
2022-11-23T04:44:50.458Z,98241.31
2022-11-23T04:45:21.813Z,98243.13
2022-11-23T04:45:53.255Z,98243.13
2022-11-23T04:46:24.613Z,98244.81
2022-11-23T04:46:56.042Z,98243.97
2022-11-23T04:47:27.475Z,98244.81
2022-11-23T04:47:59.146Z,98242.13
2022-11-23T04:48:30.617Z,98250.13
2022-11-23T04:49:02.036Z,98243.97
2022-11-23T04:49:33.817Z,98247.28
2022-11-23T04:50:05.546Z,98246.81
2022-11-23T04:50:39.784Z,98244.81
2022-11-23T04:51:12.059Z,98244.97
2022-11-23T04:51:43.509Z,98241.50
2022-11-23T04:52:15.042Z,98243.13
2022-11-23T04:52:46.460Z,98246.47
2022-11-23T04:53:17.888Z,98244.81
2022-11-23T04:53:49.354Z,98246.47
2022-11-23T04:54:20.847Z,98240.47
2022-11-23T04:54:52.264Z,98247.47
2022-11-23T04:55:23.713Z,98240.47
2022-11-23T04:55:55.139Z,98248.44
2022-11-23T04:56:26.616Z,98244.81
2022-11-23T04:56:58.024Z,98247.63
2022-11-23T04:57:29.489Z,98252.78
2022-11-23T04:58:00.911Z,98243.13
2022-11-23T04:58:34.549Z,98247.63
2022-11-23T04:59:06.294Z,98247.63
2022-11-23T04:59:37.817Z,98252.13
2022-11-23T05:00:09.530Z,98248.78
2022-11-23T05:00:41.016Z,98246.13
2022-11-23T05:01:12.506Z,98249.47
2022-11-23T05:01:43.960Z,98248.44
2022-11-23T05:02:15.370Z,98247.63
2022-11-23T05:02:46.840Z,98251.13
2022-11-23T05:03:18.238Z,98246.81
2022-11-23T05:03:49.645Z,98250.28
2022-11-23T05:04:21.129Z,98246.81
2022-11-23T05:04:52.515Z,98249.47
2022-11-23T05:05:23.860Z,98243.97
2022-11-23T05:05:57.949Z,98237.81
2022-11-23T05:06:29.432Z,98247.47
2022-11-23T05:07:00.922Z,98248.44
2022-11-23T05:07:32.383Z,98244.97
2022-11-23T05:08:03.876Z,98243.13
2022-11-23T05:08:35.276Z,98246.81
2022-11-23T05:09:06.676Z,98245.63
2022-11-23T05:09:38.097Z,98248.28
2022-11-23T05:10:09.681Z,98251.78
2022-11-23T05:10:41.077Z,98254.44
2022-11-23T05:11:12.509Z,98239.47
2022-11-23T05:11:43.933Z,98246.47
2022-11-23T05:12:15.319Z,98242.13
2022-11-23T05:12:46.759Z,98244.63
2022-11-23T05:13:18.187Z,98246.47
2022-11-23T05:13:49.663Z,98248.09
2022-11-23T05:14:21.018Z,98241.16
2022-11-23T05:14:52.460Z,98240.31
2022-11-23T05:15:23.854Z,98249.13
2022-11-23T05:15:55.346Z,98248.44
2022-11-23T05:16:26.767Z,98240.47
2022-11-23T05:16:58.240Z,98239.47
2022-11-23T05:17:29.660Z,98245.63
2022-11-23T05:18:02.106Z,98246.47
2022-11-23T05:18:33.606Z,98245.63
2022-11-23T05:19:05.123Z,98254.63
2022-11-23T05:19:36.660Z,98245.63
2022-11-23T05:20:08.361Z,98248.28
2022-11-23T05:20:39.824Z,98245.63
2022-11-23T05:21:11.579Z,98248.44
2022-11-23T05:21:43.018Z,98244.81
2022-11-23T05:22:14.490Z,98252.59
2022-11-23T05:22:45.935Z,98252.78
2022-11-23T05:23:17.437Z,98250.13
2022-11-23T05:23:48.969Z,98242.13
2022-11-23T05:24:20.424Z,98244.81
2022-11-23T05:24:51.802Z,98243.13
2022-11-23T05:25:23.246Z,98248.44
2022-11-23T05:25:54.634Z,98251.78
2022-11-23T05:26:26.083Z,98244.81
2022-11-23T05:26:57.489Z,98249.13
2022-11-23T05:27:28.881Z,98242.78
2022-11-23T05:28:07.523Z,98240.47
2022-11-23T05:28:48.465Z,98239.66
2022-11-23T05:29:19.877Z,98244.81
2022-11-23T05:29:51.352Z,98240.31
2022-11-23T05:30:22.787Z,98242.97
2022-11-23T05:30:54.195Z,98246.47
2022-11-23T05:31:25.589Z,98246.47
2022-11-23T05:31:57.026Z,98250.13
2022-11-23T05:32:28.425Z,98244.81
2022-11-23T05:33:00.426Z,98246.47
2022-11-23T05:33:31.939Z,98251.78
2022-11-23T05:34:03.397Z,98246.47
2022-11-23T05:34:34.975Z,98243.81
2022-11-23T05:35:06.726Z,98246.47
2022-11-23T05:35:38.186Z,98248.09
2022-11-23T05:36:09.684Z,98244.81
2022-11-23T05:36:42.501Z,98251.97
2022-11-23T05:37:14.165Z,98252.13
2022-11-23T05:37:45.572Z,98240.31
2022-11-23T05:38:17.011Z,98249.31
2022-11-23T05:38:48.418Z,98249.31
2022-11-23T05:39:19.880Z,98252.13
2022-11-23T05:39:51.412Z,98255.44
2022-11-23T05:40:22.772Z,98248.44
2022-11-23T05:40:54.203Z,98256.25
2022-11-23T05:41:25.626Z,98258.09
2022-11-23T05:41:57.057Z,98254.63
2022-11-23T05:42:28.554Z,98255.44
2022-11-23T05:42:59.933Z,98253.78
2022-11-23T05:43:31.345Z,98252.13
2022-11-23T05:44:02.734Z,98247.63
2022-11-23T05:44:34.249Z,98257.28
2022-11-23T05:45:11.131Z,98248.44
2022-11-23T05:45:43.125Z,98254.63
2022-11-23T05:46:14.607Z,98252.13
2022-11-23T05:46:46.008Z,98250.13
2022-11-23T05:47:17.429Z,98256.44
2022-11-23T05:47:52.088Z,98259.09
2022-11-23T05:48:23.616Z,98257.44
2022-11-23T05:48:54.977Z,98258.28
2022-11-23T05:49:26.490Z,98252.94
2022-11-23T05:49:57.969Z,98262.09
2022-11-23T05:50:29.394Z,98262.78
2022-11-23T05:51:05.248Z,98257.44
2022-11-23T05:51:37.105Z,98258.09
2022-11-23T05:52:08.529Z,98261.94
2022-11-23T05:52:39.953Z,98260.94
2022-11-23T05:53:11.425Z,98257.44
2022-11-23T05:53:42.888Z,98264.59
2022-11-23T05:54:14.280Z,98260.94
2022-11-23T05:54:45.698Z,98261.94
2022-11-23T05:55:17.214Z,98265.44
2022-11-23T05:55:48.708Z,98254.78
2022-11-23T05:56:20.137Z,98258.28
2022-11-23T05:56:51.498Z,98256.44
2022-11-23T05:57:22.902Z,98262.59
2022-11-23T05:57:54.345Z,98267.06
2022-11-23T05:58:25.829Z,98259.09
2022-11-23T05:58:57.206Z,98268.09
2022-11-23T05:59:28.733Z,98262.78
2022-11-23T06:00:00.193Z,98266.44
2022-11-23T06:00:31.646Z,98261.09
2022-11-23T06:01:03.051Z,98264.59
2022-11-23T06:01:34.609Z,98267.25
2022-11-23T06:02:06.136Z,98263.75
2022-11-23T06:02:41.004Z,98268.09
2022-11-23T06:03:12.874Z,98265.59
2022-11-23T06:03:44.326Z,98266.44
2022-11-23T06:04:16.010Z,98262.78
2022-11-23T06:04:47.593Z,98261.09
2022-11-23T06:05:18.990Z,98268.09
2022-11-23T06:05:50.466Z,98261.94
2022-11-23T06:06:21.877Z,98258.28
2022-11-23T06:06:53.246Z,98266.44
2022-11-23T06:07:24.699Z,98253.13
2022-11-23T06:07:56.118Z,98266.44
2022-11-23T06:08:27.512Z,98260.13
2022-11-23T06:08:58.990Z,98260.13
2022-11-23T06:09:30.898Z,98262.94
2022-11-23T06:10:02.644Z,98265.59
2022-11-23T06:10:34.000Z,98264.59
2022-11-23T06:11:05.547Z,98256.44
2022-11-23T06:11:36.984Z,98265.25
2022-11-23T06:12:08.441Z,98259.94
2022-11-23T06:12:39.864Z,98257.44
2022-11-23T06:13:11.267Z,98259.09
2022-11-23T06:13:42.721Z,98264.41
2022-11-23T06:14:14.665Z,98261.94
2022-11-23T06:14:46.187Z,98259.25
2022-11-23T06:15:17.576Z,98258.28
2022-11-23T06:15:48.976Z,98258.44